Ventura — 9HKL8 — position and weather

sailwx.info

Track history (hours):
 
Tides and Currents Weather Stations Pressure Air Temp Water Temp Dewpoint Dewpoint Depression Visibility Wind Speed Wind Dir Waves Ship Positions

Ventura

Last reported at 2018-Jan-18 15:49 UTC. Time now 2018-Jan-20 05:19 UTC.
Position N 01°17' E 104°01'.

Length 289 m; draft 18.1 m.

Type: Cargo ship. MMSI: 256080000.

Date/timePositionNaut miles runAvg speedWind from/ knotsBaromVisibWave heightAir tempDewpointWater temp
2018-Jan-18 15:49N 01°17' E 104°01'0 0.0
2018-Jan-18 15:29N 01°17' E 104°01'0 0.1
2018-Jan-18 12:15N 01°17' E 104°01'1 2.3
2018-Jan-18 11:59N 01°16' E 104°01'2 4.3
2018-Jan-18 11:30N 01°15' E 103°59'5 9.6
2018-Jan-18 11:01N 01°13' E 103°55'712.9
2018-Jan-18 10:30N 01°11' E 103°49'712.8
2018-Jan-18 09:58N 01°06' E 103°44'611.9
2018-Jan-18 09:30N 01°03' E 103°39'610.0
2018-Jan-18 08:56N 01°06' E 103°34'4 9.8
2018-Jan-18 08:30N 01°08' E 103°30'5 9.8
2018-Jan-18 07:59N 01°10' E 103°26'6 9.7
2018-Jan-18 07:23N 01°14' E 103°21'4 9.7
2018-Jan-18 06:59N 01°17' E 103°18'  
Track history (hours):
 
Tides and Currents Weather Stations Pressure Air Temp Water Temp Dewpoint Dewpoint Depression Visibility Wind Speed Wind Dir Waves Ship Positions

Ventura

Last reported at 2018-Jan-18 15:49 UTC. Time now 2018-Jan-20 05:19 UTC.
Position N 01°17' E 104°01'.

Length 289 m; draft 18.1 m.

Type: Cargo ship. MMSI: 256080000.

Date/timePositionNaut miles runAvg speedWind from/ knotsBaromVisibWave heightAir tempDewpointWater temp
2018-Jan-18 15:49N 01°17' E 104°01'0 0.0
2018-Jan-18 15:29N 01°17' E 104°01'0 0.1
2018-Jan-18 12:15N 01°17' E 104°01'1 2.3
2018-Jan-18 11:59N 01°16' E 104°01'2 4.3
2018-Jan-18 11:30N 01°15' E 103°59'5 9.6
2018-Jan-18 11:01N 01°13' E 103°55'712.9
2018-Jan-18 10:30N 01°11' E 103°49'712.8
2018-Jan-18 09:58N 01°06' E 103°44'611.9
2018-Jan-18 09:30N 01°03' E 103°39'610.0
2018-Jan-18 08:56N 01°06' E 103°34'4 9.8
2018-Jan-18 08:30N 01°08' E 103°30'5 9.8
2018-Jan-18 07:59N 01°10' E 103°26'6 9.7
2018-Jan-18 07:23N 01°14' E 103°21'4 9.7
2018-Jan-18 06:59N 01°17' E 103°18'  

Dump ship's entire track history